This is the latest recevied weather packets stored in our database for station/object KG4QXL-1. If no packets are shown the sender has not sent any weather packets the latest 10 day(s).
| Time | Temp. | Humidity | Pressure | Rain* | Wind** | Luminosity | Snow |
|---|---|---|---|---|---|---|---|
| 1777263358 | 8.89° C | 96% | 1029.7 hPa | 0 mm | - | 0 W/m² | - |
| 1777260358 | 8.89° C | 94% | 1029.5 hPa | 0 mm | - | 0 W/m² | - |
| 1777259158 | 8.89° C | 93% | 1029.6 hPa | 0 mm | - | 0 W/m² | - |
| 1777252558 | 9.44° C | 89% | 1028.9 hPa | 0 mm | - | 0 W/m² | - |
| 1777251959 | 9.44° C | 87% | 1028.6 hPa | 0 mm | - | 0 W/m² | - |
| 1777251358 | 9.44° C | 88% | 1028.2 hPa | 0 mm | - | 0 W/m² | - |
| 1777250758 | 9.44° C | 89% | 1028.3 hPa | 0 mm | - | 0 W/m² | - |
| 1777249559 | 10° C | 88% | 1028.1 hPa | 0 mm | - | 0 W/m² | - |
| 1777248358 | 10° C | 83% | 1027.8 hPa | 0 mm | - | 1 W/m² | - |
| 1777247758 | 10° C | 81% | 1027.7 hPa | 0 mm | - | 2 W/m² | - |
| 1777244758 | 10.56° C | 79% | 1027.3 hPa | 0 mm | - | 16 W/m² | - |
| 1777240559 | 11.11° C | 74% | 1027.1 hPa | 0 mm | - | 62 W/m² | - |
| 1777239958 | 11.11° C | 74% | 1027 hPa | 0 mm | - | 81 W/m² | - |
| 1777239358 | 11.11° C | 76% | 1026.8 hPa | 0 mm | - | 67 W/m² | - |
| 1777236358 | 11.11° C | 76% | 1026.2 hPa | 0 mm | - | 94 W/m² | - |
| 1777232758 | 11.11° C | 75% | 1026 hPa | 0 mm | - | 153 W/m² | - |
| 1777229758 | 11.11° C | 77% | 1026.2 hPa | 0 mm | - | 199 W/m² | - |
| 1777228558 | 11.11° C | 77% | 1026.2 hPa | 0 mm | - | 236 W/m² | - |
| 1777227358 | 10.56° C | 79% | 1026.2 hPa | 0 mm | - | 224 W/m² | - |
| 1777226758 | 10.56° C | 80% | 1026.3 hPa | 0 mm | - | 146 W/m² | - |
| 1777226158 | 10.56° C | 78% | 1026.2 hPa | 0 mm | - | 165 W/m² | - |
| 1777225558 | 10° C | 80% | 1026.4 hPa | 0 mm | - | 223 W/m² | - |
| 1777221958 | 10° C | 79% | 1026.3 hPa | 0 mm | - | 220 W/m² | - |
| 1777220758 | 10.56° C | 82% | 1026.4 hPa | 0 mm | - | 367 W/m² | - |
| 1777220158 | 9.44° C | 84% | 1026.5 hPa | 0 mm | - | 204 W/m² | - |
* Rain latest hour (hover to see other rain measurements)
** Current wind speed in m/s (hover to see current wind gust speed)